Time;durP1;ratioP1;P1;durP2;ratioP2;P2;SDS_P1;SDS_P2;PMS_P1;PMS_P2;Temp;Humidity;BMP_temperature;BMP_pressure;BME280_temperature;BME280_humidity;BME280_pressure;Samples;Min_cycle;Max_cycle;Signal;HPM_P1;HPM_P2
2023/05/11 00:01:33;;;;;;;19.92;9.35;;;11.70;99.90;;;;;;4976529;28;20085;-83
2023/05/11 00:03:59;;;;;;;19.77;9.32;;;11.70;99.90;;;;;;4981098;28;20491;-83
2023/05/11 00:06:25;;;;;;;19.80;9.10;;;11.70;99.90;;;;;;4979531;28;20381;-86
2023/05/11 00:08:51;;;;;;;19.00;8.95;;;11.70;99.90;;;;;;4995949;28;20056;-82
2023/05/11 00:11:19;;;;;;;17.50;8.93;;;11.70;99.90;;;;;;4978747;28;20046;-83
2023/05/11 00:13:45;;;;;;;16.70;8.30;;;11.70;99.90;;;;;;4979099;28;20054;-82
2023/05/11 00:16:11;;;;;;;16.58;8.18;;;11.70;99.90;;;;;;4999247;28;20370;-81
2023/05/11 00:18:37;;;;;;;21.77;9.75;;;11.70;99.90;;;;;;4983632;28;20106;-83
2023/05/11 00:21:03;;;;;;;18.05;8.38;;;11.70;99.90;;;;;;4950856;28;20161;-88
2023/05/11 00:23:29;;;;;;;19.02;9.15;;;11.70;99.90;;;;;;4963549;28;20039;-83
2023/05/11 00:25:54;;;;;;;18.50;9.55;;;11.70;99.90;;;;;;4996443;28;20057;-86
2023/05/11 00:28:21;;;;;;;17.05;8.55;;;11.70;99.90;;;;;;4995276;28;20047;-91
2023/05/11 00:30:47;;;;;;;23.15;11.18;;;11.70;99.90;;;;;;4978818;28;20057;-82
2023/05/11 00:33:13;;;;;;;21.80;9.77;;;11.60;99.90;;;;;;4978612;28;20046;-85
2023/05/11 00:35:39;;;;;;;24.63;10.82;;;11.60;99.90;;;;;;4963435;28;20062;-87
2023/05/11 00:38:05;;;;;;;22.60;10.90;;;11.60;99.90;;;;;;4978611;28;20046;-83
2023/05/11 00:40:31;;;;;;;26.48;11.77;;;11.60;99.90;;;;;;4995791;28;20405;-84
2023/05/11 00:42:57;;;;;;;24.23;10.55;;;11.60;99.90;;;;;;4979114;28;20081;-84
2023/05/11 00:45:23;;;;;;;23.40;10.75;;;11.60;99.90;;;;;;4996819;28;20049;-83
2023/05/11 00:47:49;;;;;;;25.55;10.77;;;11.60;99.90;;;;;;4980636;28;20038;-85
2023/05/11 00:50:17;;;;;;;24.87;11.43;;;11.60;99.90;;;;;;4978604;28;20425;-83
2023/05/11 00:52:44;;;;;;;27.60;11.60;;;11.60;99.90;;;;;;4995438;28;20053;-83
2023/05/11 00:55:12;;;;;;;28.98;11.70;;;11.60;99.90;;;;;;4995964;28;20049;-84
2023/05/11 00:57:38;;;;;;;25.35;11.20;;;11.60;99.90;;;;;;4995423;28;20047;-84
2023/05/11 01:00:05;;;;;;;28.50;11.70;;;11.60;99.90;;;;;;4995109;28;20514;-84
2023/05/11 01:02:32;;;;;;;24.92;11.73;;;11.70;99.90;;;;;;4995453;28;20057;-83
2023/05/11 01:04:59;;;;;;;28.75;14.07;;;11.70;99.90;;;;;;4994882;28;20065;-82
2023/05/11 01:07:33;;;;;;;28.88;12.48;;;11.70;99.90;;;;;;4995447;28;20105;-83
2023/05/11 01:10:13;;;;;;;27.13;12.25;;;11.70;99.90;;;;;;4994930;28;20104;-83
2023/05/11 01:12:56;;;;;;;28.42;12.30;;;11.70;99.90;;;;;;4977599;28;20094;-84
2023/05/11 01:15:39;;;;;;;23.63;11.63;;;11.70;99.90;;;;;;4995042;28;20038;-85
2023/05/11 01:18:26;;;;;;;25.42;11.70;;;11.70;99.90;;;;;;4961298;28;20053;-83
2023/05/11 01:20:57;;;;;;;27.30;12.23;;;11.70;99.90;;;;;;4994676;28;20054;-84
2023/05/11 01:24:00;;;;;;;27.63;12.65;;;11.70;99.90;;;;;;4962300;28;20097;-83
2023/05/11 01:26:57;;;;;;;28.17;12.23;;;11.70;99.90;;;;;;4995245;28;20089;-85
2023/05/11 01:29:38;;;;;;;29.63;12.20;;;11.70;99.90;;;;;;4977872;28;20050;-81
2023/05/11 01:32:14;;;;;;;26.63;12.50;;;11.60;99.90;;;;;;4978035;28;20500;-83
2023/05/11 01:34:42;;;;;;;31.25;13.27;;;11.60;99.90;;;;;;4977746;28;20492;-82
2023/05/11 01:37:25;;;;;;;27.83;12.52;;;11.60;99.90;;;;;;4977934;28;20061;-83
2023/05/11 01:39:57;;;;;;;27.58;12.40;;;11.60;99.90;;;;;;4979096;28;20054;-83
2023/05/11 01:42:40;;;;;;;29.30;12.27;;;11.60;99.90;;;;;;4997448;28;20560;-85
2023/05/11 01:45:07;;;;;;;28.70;12.63;;;11.60;99.90;;;;;;4994306;28;20525;-83
2023/05/11 01:47:34;;;;;;;26.73;12.07;;;11.60;99.90;;;;;;4994852;28;20496;-82
2023/05/11 01:50:03;;;;;;;25.90;12.15;;;11.60;99.90;;;;;;4994142;28;20112;-84
2023/05/11 01:52:31;;;;;;;31.17;12.95;;;11.60;99.90;;;;;;4977540;28;20057;-82
2023/05/11 01:54:58;;;;;;;28.40;12.55;;;11.70;99.90;;;;;;4977014;28;20363;-81
2023/05/11 01:57:25;;;;;;;28.80;13.20;;;11.70;99.90;;;;;;4977824;28;20058;-84
2023/05/11 01:59:54;;;;;;;26.67;12.32;;;11.70;99.90;;;;;;4977062;28;20486;-82
2023/05/11 02:02:21;;;;;;;27.65;12.55;;;11.70;99.90;;;;;;4994415;28;20086;-83
2023/05/11 02:04:48;;;;;;;28.52;12.77;;;11.70;99.90;;;;;;4976899;28;20058;-83
2023/05/11 02:07:17;;;;;;;29.30;13.30;;;11.70;99.90;;;;;;4977177;28;20058;-81
2023/05/11 02:09:44;;;;;;;28.77;12.68;;;11.70;99.90;;;;;;4994070;28;20039;-82
2023/05/11 02:12:12;;;;;;;29.08;13.32;;;11.70;99.90;;;;;;4994047;28;20125;-82
2023/05/11 02:14:38;;;;;;;26.77;12.20;;;11.70;99.90;;;;;;4994098;28;20046;-84
2023/05/11 02:17:06;;;;;;;29.15;13.70;;;11.70;99.90;;;;;;4994009;28;20049;-84
2023/05/11 02:19:37;;;;;;;29.60;12.60;;;11.70;99.90;;;;;;4976416;28;20054;-81
2023/05/11 02:22:04;;;;;;;28.08;12.52;;;11.70;99.90;;;;;;4960679;28;20076;-82
2023/05/11 02:24:31;;;;;;;29.83;13.27;;;11.70;99.90;;;;;;4976796;28;20089;-82
2023/05/11 02:26:57;;;;;;;32.95;13.65;;;11.70;99.90;;;;;;4994053;28;20169;-84
2023/05/11 02:29:24;;;;;;;30.05;13.10;;;11.70;99.90;;;;;;4993942;28;20386;-84
2023/05/11 02:31:56;;;;;;;32.60;14.52;;;11.70;99.90;;;;;;4976551;28;20053;-82
2023/05/11 02:34:26;;;;;;;29.52;13.50;;;11.70;99.90;;;;;;4977149;28;20360;-82
2023/05/11 02:36:54;;;;;;;29.13;13.15;;;11.70;99.90;;;;;;4994113;28;20057;-83
2023/05/11 02:39:21;;;;;;;30.55;14.48;;;11.70;99.90;;;;;;4993706;28;20105;-81
2023/05/11 02:41:56;;;;;;;31.70;14.32;;;11.80;99.90;;;;;;4993959;28;20121;-84
2023/05/11 02:44:25;;;;;;;32.65;13.77;;;11.70;99.90;;;;;;4994345;28;20088;-83
2023/05/11 02:46:53;;;;;;;29.75;13.77;;;11.70;99.90;;;;;;4961399;28;20145;-86
2023/05/11 02:49:23;;;;;;;33.15;14.55;;;11.70;99.90;;;;;;4976884;28;20390;-85
2023/05/11 02:51:51;;;;;;;31.35;13.98;;;11.70;99.90;;;;;;4995512;28;20126;-85
2023/05/11 02:54:18;;;;;;;29.60;13.75;;;11.70;99.90;;;;;;4997556;28;20062;-85
2023/05/11 02:56:44;;;;;;;32.25;13.50;;;11.70;99.90;;;;;;4965591;28;20073;-84
2023/05/11 02:59:11;;;;;;;31.92;13.43;;;11.70;99.90;;;;;;4998404;28;20046;-82
2023/05/11 03:01:38;;;;;;;31.33;14.30;;;11.70;99.90;;;;;;4998927;28;20164;-83
2023/05/11 03:04:04;;;;;;;35.63;14.85;;;11.70;99.90;;;;;;5000687;28;20066;-84
2023/05/11 03:06:32;;;;;;;34.08;15.00;;;11.70;99.90;;;;;;4984345;28;20074;-80
2023/05/11 03:08:58;;;;;;;32.03;14.07;;;11.70;99.90;;;;;;4983350;28;20098;-80
2023/05/11 03:11:25;;;;;;;34.03;14.60;;;11.70;99.90;;;;;;5000454;28;20046;-80
2023/05/11 03:13:51;;;;;;;35.28;15.13;;;11.70;99.90;;;;;;4997488;28;20340;-83
2023/05/11 03:16:18;;;;;;;38.67;14.98;;;11.70;99.90;;;;;;4997021;28;20048;-81
2023/05/11 03:18:45;;;;;;;33.97;15.43;;;11.80;99.90;;;;;;4997765;28;20046;-84
2023/05/11 03:21:13;;;;;;;33.10;14.02;;;11.80;99.90;;;;;;4963646;28;20046;-81
2023/05/11 03:23:40;;;;;;;31.02;13.55;;;11.80;99.90;;;;;;4997141;28;20054;-84
2023/05/11 03:26:06;;;;;;;35.53;13.75;;;11.80;99.90;;;;;;4997446;28;20379;-80
2023/05/11 03:28:34;;;;;;;32.72;14.15;;;11.80;99.90;;;;;;4979869;28;20050;-80
2023/05/11 03:31:00;;;;;;;34.15;14.27;;;11.80;99.90;;;;;;4998953;28;20058;-82
2023/05/11 03:33:25;;;;;;;34.58;14.50;;;11.80;99.90;;;;;;4997934;28;20571;-84
2023/05/11 03:35:52;;;;;;;33.20;13.70;;;11.80;99.90;;;;;;4949465;28;20129;-85
2023/05/11 03:38:23;;;;;;;31.23;14.60;;;11.90;99.90;;;;;;4997344;28;20038;-82
2023/05/11 03:40:51;;;;;;;31.30;13.60;;;11.80;99.90;;;;;;4997897;28;20057;-83
2023/05/11 03:43:18;;;;;;;40.78;15.73;;;11.90;99.90;;;;;;4997343;28;20506;-83
2023/05/11 03:45:44;;;;;;;;;;;11.80;99.90;;;;;;4996739;28;20090;-85
2023/05/11 03:48:13;;;;;;;39.60;15.10;;;11.80;99.90;;;;;;4996383;28;19976;-84
2023/05/11 03:50:40;;;;;;;37.70;14.82;;;11.70;99.90;;;;;;4979403;28;20058;-84
2023/05/11 03:53:06;;;;;;;38.92;14.70;;;11.80;99.90;;;;;;4996836;28;20050;-83
2023/05/11 03:55:31;;;;;;;36.30;15.82;;;11.70;99.90;;;;;;4996131;28;20054;-82
2023/05/11 03:57:57;;;;;;;35.78;14.65;;;11.70;99.90;;;;;;4996148;28;20046;-82
2023/05/11 04:00:23;;;;;;;40.58;15.15;;;11.70;99.90;;;;;;4978843;28;20128;-83
2023/05/11 04:02:49;;;;;;;40.40;16.02;;;11.70;99.90;;;;;;4996053;28;20383;-81
2023/05/11 04:05:15;;;;;;;39.63;14.85;;;11.80;99.90;;;;;;4995709;28;20100;-82
2023/05/11 04:07:40;;;;;;;42.67;14.93;;;11.80;99.90;;;;;;4996790;28;20064;-83
2023/05/11 04:10:07;;;;;;;39.65;15.05;;;11.70;99.90;;;;;;4963270;28;20113;-82
2023/05/11 04:12:33;;;;;;;35.60;14.90;;;11.80;99.90;;;;;;4996047;28;20054;-82
2023/05/11 04:14:58;;;;;;;38.95;14.75;;;11.80;99.90;;;;;;4996035;28;20553;-85
2023/05/11 04:17:24;;;;;;;36.65;15.38;;;11.90;99.90;;;;;;4962685;28;20042;-81
2023/05/11 04:19:50;;;;;;;34.72;14.73;;;11.90;99.90;;;;;;4978578;28;20092;-82
2023/05/11 04:22:18;;;;;;;39.05;14.98;;;11.90;99.90;;;;;;4995887;28;20057;-83
2023/05/11 04:24:44;;;;;;;35.28;15.10;;;12.00;99.90;;;;;;4996014;28;20050;-82
2023/05/11 04:27:10;;;;;;;39.97;15.50;;;12.00;99.90;;;;;;4978886;28;20057;-82
2023/05/11 04:29:35;;;;;;;41.10;16.27;;;11.90;99.90;;;;;;4996641;28;20092;-83
2023/05/11 04:32:01;;;;;;;40.50;17.17;;;11.90;99.90;;;;;;4979263;28;20423;-83
2023/05/11 04:34:27;;;;;;;39.35;15.80;;;11.90;99.90;;;;;;4978159;28;20042;-83
2023/05/11 04:36:52;;;;;;;40.72;16.77;;;11.90;99.90;;;;;;4995689;28;20108;-84
2023/05/11 04:39:21;;;;;;;41.75;16.77;;;11.90;99.90;;;;;;4995603;28;20495;-83
2023/05/11 04:41:47;;;;;;;40.47;15.88;;;11.80;99.90;;;;;;4995997;28;20042;-84
2023/05/11 04:44:13;;;;;;;43.97;17.02;;;11.90;99.90;;;;;;4978921;28;20133;-84
2023/05/11 04:46:39;;;;;;;42.38;16.05;;;11.90;99.90;;;;;;4979281;28;20042;-82
2023/05/11 04:49:05;;;;;;;38.50;16.27;;;11.90;99.90;;;;;;4963725;28;20112;-84
2023/05/11 04:51:31;;;;;;;41.42;16.38;;;11.90;99.90;;;;;;4985530;28;20045;-85
2023/05/11 04:53:56;;;;;;;41.00;16.00;;;12.00;99.90;;;;;;4969440;28;20081;-83
2023/05/11 04:56:25;;;;;;;46.35;17.90;;;12.00;99.90;;;;;;4984424;28;20053;-87
2023/05/11 04:58:50;;;;;;;40.63;16.60;;;12.00;99.90;;;;;;4999598;28;20406;-84
2023/05/11 05:01:17;;;;;;;41.97;17.20;;;12.00;99.90;;;;;;4983846;28;20542;-85
2023/05/11 05:03:46;;;;;;;47.85;17.90;;;12.00;99.90;;;;;;4981457;28;20047;-84
2023/05/11 05:06:12;;;;;;;48.35;18.25;;;12.00;99.90;;;;;;4995420;28;20054;-83
2023/05/11 05:08:38;;;;;;;40.33;15.60;;;12.00;99.90;;;;;;4995600;28;20046;-85
2023/05/11 05:11:04;;;;;;;41.80;15.53;;;12.00;99.90;;;;;;4962607;28;20390;-82
2023/05/11 05:13:30;;;;;;;43.20;16.58;;;12.00;99.90;;;;;;4995618;28;20101;-86
2023/05/11 05:15:55;;;;;;;48.92;17.98;;;12.00;99.90;;;;;;4995226;28;20089;-83
2023/05/11 05:18:21;;;;;;;39.13;15.75;;;12.00;99.90;;;;;;4978171;28;20046;-82
2023/05/11 05:20:47;;;;;;;43.50;15.93;;;12.10;99.90;;;;;;4995498;28;20475;-82
2023/05/11 05:23:13;;;;;;;40.40;16.52;;;12.20;99.90;;;;;;4978068;28;20049;-86
2023/05/11 05:25:39;;;;;;;43.53;16.95;;;12.20;99.90;;;;;;4978955;28;20057;-83
2023/05/11 05:28:04;;;;;;;40.20;16.23;;;12.30;99.90;;;;;;4979072;28;20053;-84
2023/05/11 05:30:30;;;;;;;42.88;16.80;;;12.40;99.90;;;;;;4998178;28;20061;-83
2023/05/11 05:32:56;;;;;;;43.97;16.65;;;12.50;99.90;;;;;;4999446;28;20046;-81
2023/05/11 05:35:21;;;;;;;43.35;16.58;;;12.50;99.90;;;;;;4980501;28;20052;-83
2023/05/11 05:37:47;;;;;;;40.05;16.13;;;12.50;99.90;;;;;;4981890;28;20458;-84
2023/05/11 05:40:14;;;;;;;44.30;18.70;;;12.40;99.90;;;;;;4973619;28;20054;-83
2023/05/11 05:42:39;;;;;;;40.97;16.17;;;12.30;99.90;;;;;;4987947;28;20505;-85
2023/05/11 05:45:06;;;;;;;43.13;16.50;;;12.30;99.90;;;;;;5004952;28;20058;-84
2023/05/11 05:47:31;;;;;;;57.40;20.57;;;12.30;99.90;;;;;;4999499;28;20066;-83
2023/05/11 05:49:57;;;;;;;42.60;17.15;;;12.30;99.90;;;;;;4964220;28;20125;-83
2023/05/11 05:52:23;;;;;;;41.92;15.98;;;12.30;99.90;;;;;;4980309;28;20042;-83
2023/05/11 05:54:48;;;;;;;38.40;16.30;;;12.30;99.90;;;;;;4977324;28;20057;-80
2023/05/11 05:57:14;;;;;;;39.25;15.70;;;12.30;99.90;;;;;;4976960;28;20129;-80
2023/05/11 05:59:40;;;;;;;38.92;15.23;;;12.30;99.90;;;;;;4977320;28;20117;-78
2023/05/11 06:02:06;;;;;;;35.72;14.55;;;12.30;99.90;;;;;;4993957;28;20521;-78
2023/05/11 06:04:32;;;;;;;35.15;14.60;;;12.30;99.90;;;;;;4993733;28;20058;-78
2023/05/11 06:06:59;;;;;;;30.55;11.73;;;12.40;99.90;;;;;;4993862;28;20054;-79
2023/05/11 06:09:25;;;;;;;33.80;13.38;;;12.30;99.90;;;;;;4994400;28;20046;-79
2023/05/11 06:11:52;;;;;;;28.80;11.90;;;12.20;99.90;;;;;;4976760;28;20449;-76
2023/05/11 06:14:19;;;;;;;28.63;12.15;;;12.20;99.90;;;;;;4994533;28;20085;-77
2023/05/11 06:16:44;;;;;;;33.22;13.07;;;12.20;99.90;;;;;;4994682;28;20058;-76
2023/05/11 06:19:14;;;;;;;38.00;14.27;;;12.20;99.90;;;;;;4993948;28;20050;-78
2023/05/11 06:21:44;;;;;;;30.73;12.65;;;12.20;99.90;;;;;;4960717;28;20077;-83
2023/05/11 06:24:09;;;;;;;36.20;14.30;;;12.20;99.90;;;;;;4977801;28;20069;-85
2023/05/11 06:26:35;;;;;;;41.80;15.25;;;12.20;99.90;;;;;;4995271;28;20494;-79
2023/05/11 06:29:01;;;;;;;39.92;14.13;;;12.10;99.90;;;;;;4964263;28;20049;-80
2023/05/11 06:31:28;;;;;;;37.88;14.73;;;12.10;99.90;;;;;;4997203;28;20449;-76
2023/05/11 06:33:54;;;;;;;36.15;12.45;;;12.10;99.90;;;;;;4964375;28;20129;-76
2023/05/11 06:36:19;;;;;;;40.88;13.15;;;12.10;99.90;;;;;;4980366;28;20054;-76
2023/05/11 06:38:45;;;;;;;38.17;14.05;;;12.10;99.90;;;;;;4979829;28;20128;-76
2023/05/11 06:41:11;;;;;;;36.83;11.95;;;12.00;99.90;;;;;;4997423;28;20038;-76
2023/05/11 06:43:41;;;;;;;27.95;10.45;;;12.00;99.90;;;;;;4997861;28;20051;-80
2023/05/11 06:46:08;;;;;;;24.27;9.73;;;12.00;99.90;;;;;;4963938;28;20054;-78
2023/05/11 06:48:34;;;;;;;24.08;9.43;;;12.00;99.90;;;;;;4997258;28;20118;-77
2023/05/11 06:51:00;;;;;;;28.52;10.60;;;12.00;99.90;;;;;;4997259;28;20065;-77
2023/05/11 06:53:26;;;;;;;20.52;8.00;;;12.00;99.90;;;;;;4997688;28;20117;-76
2023/05/11 06:55:54;;;;;;;21.50;8.10;;;11.90;99.90;;;;;;4979674;28;20124;-77
2023/05/11 06:58:20;;;;;;;22.42;8.05;;;11.90;99.90;;;;;;4996996;28;20046;-76
2023/05/11 07:00:46;;;;;;;24.50;9.43;;;11.90;99.90;;;;;;4964181;28;20057;-77
2023/05/11 07:03:11;;;;;;;31.98;10.93;;;11.90;99.90;;;;;;4963445;28;20101;-77
2023/05/11 07:05:38;;;;;;;35.90;11.45;;;11.90;99.90;;;;;;4997194;28;20085;-79
2023/05/11 07:08:04;;;;;;;41.25;12.05;;;11.90;99.90;;;;;;4980267;28;20058;-77
2023/05/11 07:10:30;;;;;;;47.63;12.73;;;11.90;99.90;;;;;;4997695;28;20397;-77
2023/05/11 07:12:56;;;;;;;50.42;14.10;;;11.90;99.90;;;;;;4963916;28;20300;-78
2023/05/11 07:15:22;;;;;;;58.47;13.82;;;11.90;99.90;;;;;;4964674;28;20145;-77
2023/05/11 07:17:48;;;;;;;52.15;13.38;;;11.90;99.90;;;;;;4979907;28;20042;-77
2023/05/11 07:20:14;;;;;;;45.87;11.57;;;11.90;99.90;;;;;;4980094;28;20410;-75
2023/05/11 07:22:40;;;;;;;40.80;11.05;;;12.00;99.90;;;;;;4996984;28;20281;-80
2023/05/11 07:25:08;;;;;;;31.90;9.23;;;12.00;99.90;;;;;;4979552;28;20046;-76
2023/05/11 07:27:34;;;;;;;25.20;8.43;;;12.00;99.90;;;;;;4997425;28;20046;-79
2023/05/11 07:30:00;;;;;;;27.63;9.60;;;11.90;99.90;;;;;;4963409;28;20104;-77
2023/05/11 07:32:25;;;;;;;29.83;8.77;;;11.90;99.90;;;;;;4979855;28;20061;-78
2023/05/11 07:34:51;;;;;;;29.33;8.43;;;11.90;99.90;;;;;;4996531;28;20371;-77
2023/05/11 07:37:17;;;;;;;32.63;9.27;;;11.80;99.90;;;;;;4978787;28;20161;-77
2023/05/11 07:39:42;;;;;;;37.85;9.77;;;11.80;99.90;;;;;;4962965;28;20101;-76
2023/05/11 07:42:08;;;;;;;32.60;8.85;;;12.00;99.90;;;;;;4978913;28;20057;-77
2023/05/11 07:44:34;;;;;;;26.23;8.07;;;12.00;99.90;;;;;;4979299;28;20122;-78
2023/05/11 07:47:00;;;;;;;25.48;8.30;;;12.00;99.90;;;;;;4996370;28;20093;-74
2023/05/11 07:49:25;;;;;;;24.27;7.70;;;12.10;99.90;;;;;;4979219;28;20046;-77
2023/05/11 07:51:51;;;;;;;26.10;7.90;;;12.10;99.90;;;;;;4979785;28;20129;-77
2023/05/11 07:54:17;;;;;;;27.48;7.05;;;12.20;99.90;;;;;;4962764;28;20494;-77
2023/05/11 07:56:43;;;;;;;23.40;6.57;;;12.30;99.90;;;;;;4978772;28;20044;-78
2023/05/11 07:59:08;;;;;;;21.52;7.60;;;12.50;99.90;;;;;;4995882;28;20398;-77
2023/05/11 08:01:34;;;;;;;21.50;7.15;;;12.60;99.90;;;;;;4978652;28;20133;-79
2023/05/11 08:04:00;;;;;;;16.20;6.07;;;12.70;99.90;;;;;;4995882;28;20105;-77
2023/05/11 08:06:26;;;;;;;17.40;5.35;;;12.70;99.90;;;;;;4996586;28;20046;-79
2023/05/11 08:08:51;;;;;;;17.25;6.30;;;12.80;99.90;;;;;;4962310;28;20176;-80
2023/05/11 08:11:17;;;;;;;17.85;6.38;;;12.80;99.90;;;;;;4978643;28;20104;-81
2023/05/11 08:13:43;;;;;;;14.63;5.55;;;12.90;99.90;;;;;;4978970;28;20086;-78
2023/05/11 08:16:09;;;;;;;11.55;4.50;;;13.00;99.90;;;;;;4996027;28;20048;-81
2023/05/11 08:18:34;;;;;;;9.63;3.80;;;12.90;99.90;;;;;;4979062;28;20120;-82
2023/05/11 08:21:00;;;;;;;9.55;3.85;;;13.10;99.90;;;;;;4995545;28;20050;-77
2023/05/11 08:23:26;;;;;;;8.55;3.33;;;13.20;99.90;;;;;;4995601;28;20084;-82
2023/05/11 08:25:53;;;;;;;8.63;2.67;;;13.40;99.90;;;;;;4977931;28;20173;-81
2023/05/11 08:28:20;;;;;;;6.88;2.53;;;13.30;99.90;;;;;;4995461;28;20049;-77
2023/05/11 08:30:46;;;;;;;7.28;2.65;;;13.40;99.90;;;;;;4978619;28;20070;-83
2023/05/11 08:33:12;;;;;;;8.43;2.90;;;13.60;99.90;;;;;;4978421;28;20050;-82
2023/05/11 08:35:39;;;;;;;6.45;2.25;;;13.70;99.90;;;;;;4996341;28;20046;-83
2023/05/11 08:38:05;;;;;;;5.45;1.90;;;13.60;99.90;;;;;;4979248;28;20327;-81
2023/05/11 08:40:31;;;;;;;7.05;2.45;;;13.50;99.90;;;;;;4979749;28;20064;-79
2023/05/11 08:42:59;;;;;;;6.25;1.90;;;13.60;99.90;;;;;;4979680;28;20038;-80
2023/05/11 08:45:26;;;;;;;4.55;1.70;;;13.60;99.90;;;;;;4962214;28;20057;-81
2023/05/11 08:47:52;;;;;;;4.30;1.58;;;13.70;99.90;;;;;;4995168;28;20086;-83
2023/05/11 08:50:18;;;;;;;3.83;1.30;;;13.80;99.90;;;;;;4977368;28;20057;-79
2023/05/11 08:52:44;;;;;;;4.05;1.80;;;13.90;99.90;;;;;;4995048;28;20050;-78
2023/05/11 08:55:10;;;;;;;5.95;1.48;;;13.80;99.90;;;;;;4977667;28;20046;-79
2023/05/11 08:57:37;;;;;;;2.97;0.93;;;14.00;99.90;;;;;;4979081;28;20386;-75
2023/05/11 09:00:03;;;;;;;2.42;0.80;;;14.20;99.90;;;;;;4995184;28;20130;-80
2023/05/11 09:02:30;;;;;;;2.38;0.80;;;14.20;99.90;;;;;;4979420;28;20050;-86
2023/05/11 09:04:58;;;;;;;5.25;0.88;;;13.90;99.90;;;;;;4977747;28;20509;-79
2023/05/11 09:07:25;;;;;;;2.08;0.90;;;13.90;99.90;;;;;;4977431;28;20057;-82
2023/05/11 09:09:51;;;;;;;1.60;0.50;;;13.80;99.90;;;;;;4995042;28;20050;-79
2023/05/11 09:12:18;;;;;;;2.33;0.60;;;13.80;99.90;;;;;;4977826;28;20049;-80
2023/05/11 09:14:45;;;;;;;2.33;0.60;;;13.90;99.90;;;;;;4994743;28;20054;-75
2023/05/11 09:17:11;;;;;;;;;;;14.20;99.90;;;;;;4995205;28;20482;-85
2023/05/11 09:20:05;;;;;;;1.00;0.40;;;14.10;99.90;;;;;;4994795;28;19937;-80
2023/05/11 09:22:50;;;;;;;1.08;0.30;;;14.10;99.90;;;;;;4995669;28;20098;-82
2023/05/11 09:25:16;;;;;;;2.17;0.30;;;14.10;99.90;;;;;;4977120;28;20042;-82
2023/05/11 09:27:46;;;;;;;1.10;0.30;;;14.10;99.90;;;;;;4962439;28;20049;-83
2023/05/11 09:30:19;;;;;;;1.17;0.40;;;14.20;99.90;;;;;;4995114;28;20042;-83
2023/05/11 09:32:52;;;;;;;1.25;0.30;;;14.30;99.90;;;;;;4979547;28;20503;-79
2023/05/11 09:35:27;;;;;;;2.17;0.25;;;14.30;99.90;;;;;;4978184;28;20053;-85
2023/05/11 09:38:01;;;;;;;1.98;0.13;;;;;;;;;;4963409;28;20054;-79
2023/05/11 09:40:28;;;;;;;0.68;0.20;;;14.20;99.90;;;;;;4961495;28;20053;-80
2023/05/11 09:42:54;;;;;;;0.93;0.10;;;14.50;99.90;;;;;;4977371;28;20101;-82
2023/05/11 09:45:42;;;;;;;0.40;0.10;;;14.90;99.90;;;;;;4945420;28;20049;-80
2023/05/11 09:48:24;;;;;;;0.30;0.10;;;15.30;99.90;;;;;;4977956;28;20057;-82
2023/05/11 09:50:57;;;;;;;0.80;0.10;;;15.30;99.90;;;;;;4995521;28;20134;-83
2023/05/11 09:53:37;;;;;;;0.88;0.10;;;15.10;99.90;;;;;;4994388;28;20112;-80
2023/05/11 09:56:03;;;;;;;0.77;0.15;;;15.10;99.90;;;;;;4994282;28;20133;-83
2023/05/11 09:58:56;;;;;;;0.63;0.10;;;15.30;99.90;;;;;;4977788;28;20049;-82
2023/05/11 10:01:32;;;;;;;0.30;0.10;;;15.40;99.90;;;;;;4982372;28;20057;-79
2023/05/11 10:04:02;;;;;;;0.50;0.10;;;15.50;99.90;;;;;;4983574;28;20384;-83
2023/05/11 10:06:43;;;;;;;0.68;0.20;;;15.60;99.90;;;;;;5001420;28;20057;-82
2023/05/11 10:09:09;;;;;;;2.10;0.15;;;15.70;99.90;;;;;;5002750;28;20371;-77
2023/05/11 10:11:37;;;;;;;2.30;0.20;;;15.50;99.90;;;;;;4968590;28;20045;-84
2023/05/11 10:14:02;;;;;;;0.38;0.10;;;15.60;99.90;;;;;;4983956;28;20081;-84
2023/05/11 10:16:29;;;;;;;0.43;0.10;;;15.60;99.90;;;;;;5002060;28;20104;-83
2023/05/11 10:18:56;;;;;;;0.50;0.10;;;15.40;99.90;;;;;;5010975;28;20092;-81
2023/05/11 10:21:22;;;;;;;0.73;0.20;;;15.40;99.90;;;;;;4990502;28;20435;-77
2023/05/11 10:23:48;;;;;;;1.17;0.10;;;15.30;99.90;;;;;;4983416;28;20398;-79
2023/05/11 10:26:14;;;;;;;0.70;0.20;;;15.20;99.90;;;;;;4983110;28;20431;-83
2023/05/11 10:28:40;;;;;;;2.78;0.30;;;14.90;99.90;;;;;;5001684;28;20201;-82
2023/05/11 10:31:07;;;;;;;1.33;0.20;;;14.60;99.90;;;;;;4983539;28;20085;-81
2023/05/11 10:33:34;;;;;;;0.70;0.20;;;14.50;99.90;;;;;;5001867;28;20047;-88
2023/05/11 10:36:01;;;;;;;1.00;0.13;;;14.70;99.90;;;;;;5001504;28;20402;-82
2023/05/11 10:38:26;;;;;;;;;;;14.80;99.90;;;;;;5000943;28;20049;-86
2023/05/11 10:41:02;;;;;;;0.73;0.20;;;14.90;99.90;;;;;;5000852;28;19922;-83
2023/05/11 10:44:10;;;;;;;0.60;0.17;;;15.00;99.90;;;;;;4968544;28;20057;-83
2023/05/11 10:47:13;;;;;;;0.85;0.17;;;14.90;99.90;;;;;;5001247;28;20061;-85
2023/05/11 10:50:04;;;;;;;0.60;0.20;;;15.20;99.90;;;;;;5000809;28;20073;-86
2023/05/11 10:52:49;;;;;;;0.90;0.30;;;15.20;99.90;;;;;;4943886;28;20127;-83
2023/05/11 10:55:18;;;;;;;2.10;0.20;;;14.90;99.90;;;;;;4984719;28;20046;-82
2023/05/11 10:58:09;;;;;;;1.70;0.43;;;15.00;99.90;;;;;;4983263;28;20050;-83
2023/05/11 11:01:00;;;;;;;1.13;0.40;;;15.30;99.90;;;;;;4995032;28;20114;-84
2023/05/11 11:03:25;;;;;;;2.00;0.60;;;15.20;99.90;;;;;;5003530;28;20114;-84
2023/05/11 11:05:51;;;;;;;2.60;0.80;;;15.10;99.90;;;;;;4984239;28;20434;-84
2023/05/11 11:08:17;;;;;;;2.35;0.80;;;15.40;99.90;;;;;;4983370;28;20045;-82
2023/05/11 11:10:44;;;;;;;3.42;1.10;;;15.90;99.90;;;;;;5000778;28;20050;-82
2023/05/11 11:13:13;;;;;;;3.10;1.00;;;15.90;99.90;;;;;;4980201;28;20054;-80
2023/05/11 11:15:54;;;;;;;3.42;1.50;;;15.90;99.90;;;;;;4982353;28;20053;-86
2023/05/11 11:18:28;;;;;;;3.78;1.45;;;15.80;99.90;;;;;;4997897;28;20367;-79
2023/05/11 11:20:56;;;;;;;4.20;1.60;;;15.80;99.90;;;;;;4982479;28;20047;-85
2023/05/11 11:23:42;;;;;;;4.78;1.80;;;16.10;99.90;;;;;;4983496;28;20136;-84
2023/05/11 11:26:14;;;;;;;4.63;1.80;;;16.00;99.90;;;;;;4965277;28;20053;-85
2023/05/11 11:28:56;;;;;;;4.45;1.73;;;16.30;99.90;;;;;;5000552;28;20093;-86
2023/05/11 11:31:26;;;;;;;5.95;2.30;;;16.70;99.90;;;;;;5001505;28;20050;-84
2023/05/11 11:33:57;;;;;;;5.93;2.45;;;17.00;99.90;;;;;;5004194;28;20050;-86
2023/05/11 11:36:54;;;;;;;4.93;2.20;;;16.90;99.90;;;;;;4985568;28;20513;-83
2023/05/11 11:39:29;;;;;;;6.18;2.72;;;17.30;99.90;;;;;;4982073;28;20046;-82
2023/05/11 11:42:02;;;;;;;5.55;2.70;;;17.50;99.90;;;;;;4999319;28;20050;-78
2023/05/11 11:44:28;;;;;;;6.65;3.30;;;17.60;99.90;;;;;;4999634;28;20122;-84
2023/05/11 11:47:14;;;;;;;6.97;3.70;;;17.70;99.90;;;;;;4972565;28;20080;-82
2023/05/11 11:49:43;;;;;;;7.93;4.07;;;17.70;99.90;;;;;;5002953;28;20445;-80
2023/05/11 11:52:34;;;;;;;8.18;4.47;;;17.70;99.90;;;;;;4998935;28;20498;-81
2023/05/11 11:55:02;;;;;;;8.00;4.43;;;17.20;99.90;;;;;;4980039;28;20536;-85
2023/05/11 11:57:34;;;;;;;9.95;5.57;;;17.40;99.90;;;;;;4963841;28;20061;-79
2023/05/11 12:00:09;;;;;;;10.48;5.88;;;17.30;99.90;;;;;;4996882;28;20098;-81
2023/05/11 12:02:41;;;;;;;8.75;4.85;;;17.60;99.90;;;;;;4980417;28;20050;-80
2023/05/11 12:05:18;;;;;;;9.35;5.63;;;17.80;99.90;;;;;;4979601;28;20084;-83
2023/05/11 12:07:48;;;;;;;9.45;5.53;;;17.80;99.90;;;;;;4996230;28;20046;-80
2023/05/11 12:10:20;;;;;;;10.82;5.13;;;17.90;99.90;;;;;;4979770;28;20382;-80
2023/05/11 12:12:48;;;;;;;8.50;4.75;;;18.10;99.90;;;;;;4962829;28;20046;-82
2023/05/11 12:15:24;;;;;;;9.27;5.55;;;18.30;99.90;;;;;;4997015;28;20069;-82
2023/05/11 12:17:49;;;;;;;8.55;4.93;;;18.10;99.90;;;;;;4962853;28;20058;-84
2023/05/11 12:20:17;;;;;;;10.70;6.73;;;18.30;99.90;;;;;;4996823;28;20042;-80
2023/05/11 12:22:45;;;;;;;9.90;5.65;;;18.10;99.90;;;;;;4995584;28;20044;-80
2023/05/11 12:25:13;;;;;;;8.82;5.50;;;18.40;99.90;;;;;;4978943;28;20046;-85
2023/05/11 12:28:02;;;;;;;9.85;5.93;;;18.50;99.90;;;;;;4979161;28;20050;-81
2023/05/11 12:30:30;;;;;;;9.57;5.80;;;18.40;99.90;;;;;;4996553;28;20105;-80
2023/05/11 12:32:56;;;;;;;11.52;6.28;;;18.60;99.90;;;;;;4978204;28;20112;-80
2023/05/11 12:35:27;;;;;;;10.13;6.53;;;18.90;99.90;;;;;;4996575;28;20046;-80
2023/05/11 12:37:53;;;;;;;10.82;5.93;;;19.00;99.90;;;;;;4961917;28;20065;-82
2023/05/11 12:40:19;;;;;;;9.30;5.80;;;19.10;99.90;;;;;;4995743;28;20150;-78
2023/05/11 12:42:53;;;;;;;10.23;6.25;;;19.20;99.90;;;;;;4979087;28;20058;-80
2023/05/11 12:45:19;;;;;;;12.85;6.47;;;19.20;99.90;;;;;;4978764;28;20100;-79